Time;durP1;ratioP1;P1;durP2;ratioP2;P2;SDS_P1;SDS_P2;PMS_P1;PMS_P2;Temp;Humidity;BMP_temperature;BMP_pressure;BME280_temperature;BME280_humidity;BME280_pressure;Samples;Min_cycle;Max_cycle;Signal;HPM_P1;HPM_P2
2021/01/17 00:00:09;;;;;;;26.95;16.88;;;;;;;;;;5085637;28;20203;-75
2021/01/17 00:02:35;;;;;;;22.90;16.27;;;;;;;;;;5071973;28;20632;-75
2021/01/17 00:05:01;;;;;;;23.35;15.95;;;;;;;;;;5082568;28;20561;-76
2021/01/17 00:07:30;;;;;;;25.88;15.95;;;;;;;;;;5071746;28;20278;-74
2021/01/17 00:09:56;;;;;;;22.90;16.20;;;;;;;;;;5085434;28;20215;-76
2021/01/17 00:12:23;;;;;;;27.10;17.65;;;;;;;;;;5084592;28;20249;-73
2021/01/17 00:14:49;;;;;;;23.42;15.25;;;;;;;;;;5087000;28;20711;-74
2021/01/17 00:17:15;;;;;;;22.85;15.70;;;;;;;;;;5072137;28;20587;-76
2021/01/17 00:19:41;;;;;;;21.80;16.73;;;;;;;;;;5077459;28;20184;-73
2021/01/17 00:22:07;;;;;;;24.77;17.55;;;;;;;;;;5078252;28;20195;-74
2021/01/17 00:24:33;;;;;;;24.33;16.38;;;;;;;;;;5072869;28;20183;-74
2021/01/17 00:26:59;;;;;;;24.20;17.02;;;;;;;;;;5078598;28;20210;-75
2021/01/17 00:29:25;;;;;;;25.25;17.20;;;;;;;;;;5085804;28;20176;-72
2021/01/17 00:31:52;;;;;;;23.92;16.15;;;;;;;;;;5091205;28;20204;-72
2021/01/17 00:34:18;;;;;;;21.23;15.15;;;;;;;;;;5072278;28;20221;-74
2021/01/17 00:36:44;;;;;;;26.60;17.10;;;;;;;;;;5076573;28;20184;-74
2021/01/17 00:39:10;;;;;;;26.90;17.20;;;;;;;;;;5071145;28;20187;-73
2021/01/17 00:41:36;;;;;;;25.85;16.90;;;;;;;;;;5085088;28;20210;-73
2021/01/17 00:44:05;;;;;;;32.03;18.42;;;;;;;;;;5085703;28;20204;-74
2021/01/17 00:46:38;;;;;;;27.30;17.50;;;;;;;;;;5074910;28;20243;-73
2021/01/17 00:49:04;;;;;;;24.60;17.15;;;;;;;;;;5091282;28;20195;-76
2021/01/17 00:51:45;;;;;;;27.10;17.20;;;;;;;;;;5090244;28;20675;-75
2021/01/17 00:54:11;;;;;;;26.88;17.38;;;;;;;;;;5078243;28;20171;-74
2021/01/17 00:56:38;;;;;;;27.35;17.33;;;;;;;;;;5090391;28;20592;-76
2021/01/17 00:59:08;;;;;;;26.42;17.05;;;;;;;;;;5085593;28;20180;-73
2021/01/17 01:01:44;;;;;;;27.42;16.25;;;;;;;;;;5086221;28;20286;-73
2021/01/17 01:04:10;;;;;;;24.40;16.80;;;;;;;;;;5073982;28;20183;-75
2021/01/17 01:06:37;;;;;;;27.08;18.10;;;;;;;;;;5076213;28;20221;-74
2021/01/17 01:09:10;;;;;;;22.98;16.27;;;;;;;;;;5085645;28;20613;-73
2021/01/17 01:11:37;;;;;;;27.52;17.10;;;;;;;;;;5072452;28;20200;-76
2021/01/17 01:14:03;;;;;;;26.80;17.52;;;;;;;;;;5077537;28;20184;-75
2021/01/17 01:16:29;;;;;;;27.42;18.23;;;;;;;;;;5073142;28;20188;-73
2021/01/17 01:18:55;;;;;;;24.20;15.93;;;;;;;;;;5069016;28;20503;-74
2021/01/17 01:21:28;;;;;;;24.58;16.67;;;;;;;;;;5085091;28;20204;-71
2021/01/17 01:23:54;;;;;;;24.65;16.30;;;;;;;;;;5069888;28;20211;-74
2021/01/17 01:26:21;;;;;;;26.70;17.02;;;;;;;;;;5081845;28;20284;-74
2021/01/17 01:28:48;;;;;;;25.98;17.08;;;;;;;;;;5078283;28;20197;-74
2021/01/17 01:31:21;;;;;;;23.77;16.30;;;;;;;;;;5079429;28;20665;-76
2021/01/17 01:33:48;;;;;;;23.20;15.02;;;;;;;;;;5069761;28;20195;-75
2021/01/17 01:36:18;;;;;;;30.23;16.00;;;;;;;;;;5078411;28;20238;-73
2021/01/17 01:38:44;;;;;;;26.27;17.20;;;;;;;;;;5087098;28;20544;-72
2021/01/17 01:41:10;;;;;;;27.05;16.52;;;;;;;;;;5089284;28;20195;-74
2021/01/17 01:43:36;;;;;;;29.17;17.33;;;;;;;;;;5093305;28;20187;-72
2021/01/17 01:46:02;;;;;;;24.60;16.25;;;;;;;;;;5093633;28;20574;-74
2021/01/17 01:48:31;;;;;;;24.83;16.65;;;;;;;;;;5092380;28;20637;-76
2021/01/17 01:50:57;;;;;;;25.92;17.77;;;;;;;;;;5091958;28;20637;-72
2021/01/17 01:53:23;;;;;;;26.27;17.25;;;;;;;;;;5089300;28;20179;-73
2021/01/17 01:55:49;;;;;;;31.80;18.38;;;;;;;;;;5092516;28;20184;-72
2021/01/17 01:58:15;;;;;;;25.02;17.60;;;;;;;;;;5093642;28;20303;-73
2021/01/17 02:00:41;;;;;;;28.40;17.95;;;;;;;;;;5093805;28;20175;-73
2021/01/17 02:03:07;;;;;;;29.65;18.33;;;;;;;;;;5093573;28;20576;-72
2021/01/17 02:05:33;;;;;;;28.00;18.38;;;;;;;;;;5092896;28;20203;-74
2021/01/17 02:08:08;;;;;;;24.30;17.08;;;;;;;;;;5093388;28;20565;-72
2021/01/17 02:10:35;;;;;;;23.08;17.67;;;;;;;;;;5090550;28;20180;-72
2021/01/17 02:13:07;;;;;;;25.48;18.15;;;;;;;;;;5077059;28;20203;-74
2021/01/17 02:15:34;;;;;;;27.15;17.48;;;;;;;;;;5093248;28;20595;-72
2021/01/17 02:18:04;;;;;;;29.08;17.80;;;;;;;;;;5093681;28;20175;-74
2021/01/17 02:20:31;;;;;;;24.48;17.08;;;;;;;;;;5093200;28;20210;-73
2021/01/17 02:23:00;;;;;;;23.88;17.15;;;;;;;;;;5089904;28;20200;-71
2021/01/17 02:25:28;;;;;;;32.30;19.00;;;;;;;;;;5073100;28;20202;-73
2021/01/17 02:27:55;;;;;;;29.92;18.95;;;;;;;;;;5079106;28;20693;-71
2021/01/17 02:30:22;;;;;;;26.52;17.77;;;;;;;;;;5093092;28;20171;-73
2021/01/17 02:32:49;;;;;;;26.73;18.10;;;;;;;;;;5076348;28;20200;-72
2021/01/17 02:35:16;;;;;;;28.33;18.55;;;;;;;;;;5084917;28;20207;-71
2021/01/17 02:37:50;;;;;;;28.10;18.10;;;;;;;;;;5082476;28;20176;-73
2021/01/17 02:40:35;;;;;;;27.48;18.00;;;;;;;;;;5075969;28;20183;-75
2021/01/17 02:43:02;;;;;;;29.67;17.92;;;;;;;;;;5086148;28;20202;-75
2021/01/17 02:45:28;;;;;;;26.83;17.27;;;;;;;;;;5078201;28;20282;-72
2021/01/17 02:47:54;;;;;;;26.65;17.73;;;;;;;;;;5073165;28;20637;-74
2021/01/17 02:50:20;;;;;;;26.00;16.65;;;;;;;;;;5083285;28;20171;-74
2021/01/17 02:52:49;;;;;;;24.85;17.83;;;;;;;;;;5087872;28;20285;-74
2021/01/17 02:55:16;;;;;;;31.02;20.23;;;;;;;;;;5089731;28;20199;-75
2021/01/17 02:57:45;;;;;;;30.02;17.67;;;;;;;;;;5092976;28;20172;-72
2021/01/17 03:00:11;;;;;;;27.45;16.98;;;;;;;;;;5091981;28;20174;-71
2021/01/17 03:02:45;;;;;;;26.75;18.13;;;;;;;;;;5084183;28;20562;-74
2021/01/17 03:05:21;;;;;;;28.50;17.63;;;;;;;;;;5088706;28;20341;-73
2021/01/17 03:07:51;;;;;;;28.40;17.88;;;;;;;;;;5091428;28;20221;-72
2021/01/17 03:10:17;;;;;;;27.13;17.48;;;;;;;;;;5096609;28;20168;-70
2021/01/17 03:12:43;;;;;;;25.60;17.55;;;;;;;;;;5079079;28;20199;-74
2021/01/17 03:15:10;;;;;;;29.50;18.63;;;;;;;;;;5084110;28;20177;-72
2021/01/17 03:17:37;;;;;;;27.45;17.55;;;;;;;;;;5074165;28;20200;-73
2021/01/17 03:20:04;;;;;;;27.45;18.25;;;;;;;;;;5093010;28;20254;-72
2021/01/17 03:22:30;;;;;;;23.05;17.15;;;;;;;;;;5087517;28;20207;-71
2021/01/17 03:24:56;;;;;;;26.63;17.90;;;;;;;;;;5092489;28;20180;-73
2021/01/17 03:27:22;;;;;;;28.02;18.67;;;;;;;;;;5092624;28;20172;-75
2021/01/17 03:29:48;;;;;;;29.50;18.45;;;;;;;;;;5092316;28;20187;-71
2021/01/17 03:32:14;;;;;;;26.15;18.23;;;;;;;;;;5077252;28;20203;-74
2021/01/17 03:34:42;;;;;;;31.65;19.95;;;;;;;;;;5078399;28;20176;-73
2021/01/17 03:37:08;;;;;;;26.60;18.67;;;;;;;;;;5083001;28;20505;-73
2021/01/17 03:39:34;;;;;;;26.17;17.92;;;;;;;;;;5096152;28;20205;-75
2021/01/17 03:42:00;;;;;;;27.70;19.50;;;;;;;;;;5090891;28;20199;-72
2021/01/17 03:44:26;;;;;;;28.83;18.05;;;;;;;;;;5090611;28;20564;-72
2021/01/17 03:46:52;;;;;;;26.65;19.08;;;;;;;;;;5096273;28;20206;-71
2021/01/17 03:49:18;;;;;;;30.75;19.50;;;;;;;;;;5087014;28;20195;-74
2021/01/17 03:51:44;;;;;;;28.92;19.08;;;;;;;;;;5091306;28;20203;-73
2021/01/17 03:54:10;;;;;;;31.17;19.65;;;;;;;;;;5095351;28;20164;-73
2021/01/17 03:56:36;;;;;;;25.55;18.73;;;;;;;;;;5082033;28;20659;-73
2021/01/17 03:59:02;;;;;;;31.15;19.05;;;;;;;;;;5094617;28;20175;-72
2021/01/17 04:01:28;;;;;;;28.08;18.65;;;;;;;;;;5086150;28;20732;-73
2021/01/17 04:03:57;;;;;;;31.50;19.45;;;;;;;;;;5075380;28;20172;-73
2021/01/17 04:06:23;;;;;;;27.35;18.65;;;;;;;;;;5088217;28;20210;-74
2021/01/17 04:08:49;;;;;;;31.63;19.30;;;;;;;;;;5091969;28;20175;-74
2021/01/17 04:11:15;;;;;;;33.47;21.08;;;;;;;;;;5098471;28;20199;-73
2021/01/17 04:13:41;;;;;;;29.75;20.90;;;;;;;;;;5094702;28;20582;-72
2021/01/17 04:16:08;;;;;;;31.30;20.10;;;;;;;;;;5097689;28;20187;-73
2021/01/17 04:18:34;;;;;;;34.45;22.05;;;;;;;;;;5095575;28;20183;-71
2021/01/17 04:21:00;;;;;;;29.90;18.25;;;;;;;;;;5092355;28;20188;-73
2021/01/17 04:23:26;;;;;;;34.33;20.73;;;;;;;;;;5095313;28;20229;-73
2021/01/17 04:25:52;;;;;;;30.25;20.27;;;;;;;;;;5092300;28;20191;-72
2021/01/17 04:28:18;;;;;;;28.55;19.38;;;;;;;;;;5083323;28;20179;-74
2021/01/17 04:30:45;;;;;;;28.75;20.00;;;;;;;;;;5078976;28;20892;-74
2021/01/17 04:33:11;;;;;;;30.27;19.52;;;;;;;;;;5074875;28;20279;-73
2021/01/17 04:35:37;;;;;;;28.92;19.55;;;;;;;;;;5075827;28;20187;-73
2021/01/17 04:38:03;;;;;;;29.13;19.00;;;;;;;;;;5082246;28;20205;-71
2021/01/17 04:40:30;;;;;;;32.63;21.08;;;;;;;;;;5095214;28;20577;-72
2021/01/17 04:43:16;;;;;;;28.10;18.95;;;;;;;;;;5090678;28;20315;-72
2021/01/17 04:45:42;;;;;;;25.67;18.38;;;;;;;;;;5082444;28;20289;-74
2021/01/17 04:48:09;;;;;;;33.58;20.02;;;;;;;;;;5082265;28;20571;-74
2021/01/17 04:50:35;;;;;;;31.13;18.20;;;;;;;;;;5074892;28;20173;-74
2021/01/17 04:53:01;;;;;;;30.80;18.92;;;;;;;;;;5078452;28;20199;-73
2021/01/17 04:55:27;;;;;;;35.03;20.33;;;;;;;;;;5088159;28;20182;-73
2021/01/17 04:57:56;;;;;;;30.65;18.90;;;;;;;;;;5086569;28;20267;-74
2021/01/17 05:00:25;;;;;;;29.00;18.70;;;;;;;;;;5083952;28;20187;-72
2021/01/17 05:03:01;;;;;;;31.50;19.17;;;;;;;;;;5093850;28;20279;-75
2021/01/17 05:05:30;;;;;;;28.83;19.05;;;;;;;;;;5094223;28;20195;-73
2021/01/17 05:08:12;;;;;;;26.90;17.70;;;;;;;;;;5079382;28;20576;-72
2021/01/17 05:10:38;;;;;;;30.70;18.80;;;;;;;;;;5100917;28;20180;-72
2021/01/17 05:13:17;;;;;;;33.15;19.52;;;;;;;;;;5081701;28;20275;-73
2021/01/17 05:15:44;;;;;;;29.63;19.65;;;;;;;;;;5086551;28;20236;-72
2021/01/17 05:18:10;;;;;;;35.95;21.73;;;;;;;;;;5088684;28;20183;-72
2021/01/17 05:20:36;;;;;;;32.20;20.75;;;;;;;;;;5074193;28;20626;-72
2021/01/17 05:23:08;;;;;;;31.92;20.00;;;;;;;;;;5090893;28;20575;-74
2021/01/17 05:25:34;;;;;;;31.50;20.15;;;;;;;;;;5092668;28;20806;-73
2021/01/17 05:28:00;;;;;;;31.33;19.55;;;;;;;;;;5075444;28;20172;-73
2021/01/17 05:30:26;;;;;;;32.45;20.90;;;;;;;;;;5093820;28;20176;-71
2021/01/17 05:32:53;;;;;;;30.58;20.35;;;;;;;;;;5094302;28;20720;-73
2021/01/17 05:35:19;;;;;;;38.40;21.95;;;;;;;;;;5092988;28;20245;-73
2021/01/17 05:37:49;;;;;;;31.48;20.38;;;;;;;;;;5074030;28;20191;-74
2021/01/17 05:40:16;;;;;;;27.67;18.67;;;;;;;;;;5087146;28;20180;-74
2021/01/17 05:42:43;;;;;;;29.55;18.98;;;;;;;;;;5088453;28;20195;-75
2021/01/17 05:45:12;;;;;;;30.55;19.02;;;;;;;;;;5083320;28;20176;-74
2021/01/17 05:47:38;;;;;;;36.17;21.25;;;;;;;;;;5085308;28;20273;-73
2021/01/17 05:50:09;;;;;;;29.45;20.38;;;;;;;;;;5086516;28;20178;-73
2021/01/17 05:52:35;;;;;;;26.90;19.23;;;;;;;;;;5073765;28;20279;-74
2021/01/17 05:55:01;;;;;;;35.72;21.40;;;;;;;;;;5085406;28;20203;-74
2021/01/17 05:57:27;;;;;;;30.65;19.65;;;;;;;;;;5092240;28;20180;-73
2021/01/17 05:59:54;;;;;;;28.55;18.83;;;;;;;;;;5090078;28;20208;-71
2021/01/17 06:02:21;;;;;;;35.83;20.88;;;;;;;;;;5091004;28;20195;-74
2021/01/17 06:04:54;;;;;;;32.35;20.70;;;;;;;;;;5092823;28;20540;-74
2021/01/17 06:07:21;;;;;;;30.38;19.02;;;;;;;;;;5084220;28;20522;-74
2021/01/17 06:09:48;;;;;;;30.58;19.52;;;;;;;;;;5092811;28;20168;-74
2021/01/17 06:12:27;;;;;;;30.98;19.85;;;;;;;;;;5082674;28;20271;-73
2021/01/17 06:15:01;;;;;;;28.20;18.35;;;;;;;;;;5089763;28;20262;-72
2021/01/17 06:17:27;;;;;;;34.80;20.42;;;;;;;;;;5093483;28;20171;-72
2021/01/17 06:19:54;;;;;;;32.25;20.48;;;;;;;;;;5090058;28;20190;-73
2021/01/17 06:22:24;;;;;;;34.38;21.35;;;;;;;;;;5082574;28;20556;-72
2021/01/17 06:24:58;;;;;;;34.63;21.38;;;;;;;;;;5074351;28;20566;-73
2021/01/17 06:27:25;;;;;;;33.67;21.40;;;;;;;;;;5073671;28;20283;-74
2021/01/17 06:29:51;;;;;;;33.92;21.08;;;;;;;;;;5083706;28;20184;-75
2021/01/17 06:32:18;;;;;;;34.53;20.60;;;;;;;;;;5073055;28;20199;-73
2021/01/17 06:34:45;;;;;;;33.80;21.67;;;;;;;;;;5072631;28;20183;-74
2021/01/17 06:37:11;;;;;;;34.35;21.88;;;;;;;;;;5076345;28;20188;-72
2021/01/17 06:39:42;;;;;;;32.65;22.60;;;;;;;;;;5084069;28;20183;-75
2021/01/17 06:42:10;;;;;;;38.33;23.05;;;;;;;;;;5081297;28;20207;-73
2021/01/17 06:44:36;;;;;;;37.22;22.20;;;;;;;;;;5084414;28;20656;-71
2021/01/17 06:47:02;;;;;;;37.05;21.52;;;;;;;;;;5091400;28;20218;-72
2021/01/17 06:49:29;;;;;;;33.92;21.38;;;;;;;;;;5085603;28;20180;-73
2021/01/17 06:51:57;;;;;;;36.75;21.33;;;;;;;;;;5072785;28;20196;-73
2021/01/17 06:54:23;;;;;;;34.78;21.80;;;;;;;;;;5078702;28;20632;-73
2021/01/17 06:56:50;;;;;;;37.13;22.10;;;;;;;;;;5093064;28;20215;-73
2021/01/17 06:59:35;;;;;;;33.08;20.60;;;;;;;;;;5092409;28;20615;-72
2021/01/17 07:02:13;;;;;;;31.70;20.15;;;;;;;;;;5092819;28;20199;-73
2021/01/17 07:04:58;;;;;;;34.22;21.30;;;;;;;;;;5092750;28;20179;-72
2021/01/17 07:07:42;;;;;;;35.72;20.75;;;;;;;;;;5092794;28;20187;-73
2021/01/17 07:10:09;;;;;;;35.63;21.05;;;;;;;;;;5086374;28;20544;-72
2021/01/17 07:12:35;;;;;;;35.85;21.85;;;;;;;;;;5094306;28;20199;-74
2021/01/17 07:15:08;;;;;;;34.70;20.55;;;;;;;;;;5095825;28;20632;-75
2021/01/17 07:17:36;;;;;;;34.65;21.00;;;;;;;;;;5083894;28;20513;-73
2021/01/17 07:20:14;;;;;;;36.67;21.50;;;;;;;;;;5097484;28;20186;-74
2021/01/17 07:22:44;;;;;;;33.58;20.77;;;;;;;;;;5094297;28;20218;-74
2021/01/17 07:25:11;;;;;;;38.33;22.23;;;;;;;;;;5097750;28;20554;-72
2021/01/17 07:27:50;;;;;;;37.28;22.75;;;;;;;;;;5097158;28;20236;-71
2021/01/17 07:30:20;;;;;;;33.78;20.38;;;;;;;;;;5094222;28;20705;-74
2021/01/17 07:32:54;;;;;;;38.35;21.88;;;;;;;;;;5096491;28;20256;-72
2021/01/17 07:35:24;;;;;;;35.03;20.58;;;;;;;;;;5093192;28;20203;-72
2021/01/17 07:37:53;;;;;;;37.22;21.55;;;;;;;;;;5084888;28;20254;-73
2021/01/17 07:43:08;;;;;;;39.72;22.42;;;;;;;;;;5079803;28;20247;-74
2021/01/17 07:45:37;;;;;;;35.25;21.40;;;;;;;;;;5086462;28;20207;-73
2021/01/17 07:48:06;;;;;;;36.75;21.30;;;;;;;;;;5091479;28;20242;-71
2021/01/17 07:50:36;;;;;;;37.85;21.25;;;;;;;;;;5076759;28;20172;-74
2021/01/17 07:53:03;;;;;;;37.08;21.73;;;;;;;;;;5083595;28;20196;-74
2021/01/17 07:55:29;;;;;;;38.92;21.52;;;;;;;;;;5090671;28;20179;-73
2021/01/17 07:57:56;;;;;;;33.80;21.63;;;;;;;;;;5090365;28;20211;-74
2021/01/17 08:00:25;;;;;;;34.08;20.25;;;;;;;;;;5088744;28;20179;-74
2021/01/17 08:02:52;;;;;;;35.55;20.75;;;;;;;;;;5076053;28;20192;-72
2021/01/17 08:05:18;;;;;;;36.20;22.10;;;;;;;;;;5075566;28;20714;-73
2021/01/17 08:07:44;;;;;;;35.88;21.90;;;;;;;;;;5093785;28;20264;-74
2021/01/17 08:10:10;;;;;;;32.45;20.73;;;;;;;;;;5095821;28;20195;-71
2021/01/17 08:12:40;;;;;;;33.30;22.45;;;;;;;;;;5095349;28;20207;-73
2021/01/17 08:15:19;;;;;;;30.10;19.80;;;;;;;;;;5095105;28;20576;-74
2021/01/17 08:17:45;;;;;;;36.88;22.60;;;;;;;;;;5082233;28;20238;-72
2021/01/17 08:20:20;;;;;;;29.20;19.38;;;;;;;;;;5089124;28;20517;-72
2021/01/17 08:22:46;;;;;;;28.02;18.75;;;;;;;;;;5094478;28;20235;-73
2021/01/17 08:25:13;;;;;;;30.38;19.25;;;;;;;;;;5088113;28;20171;-74
2021/01/17 08:27:43;;;;;;;59.75;33.92;;;;;;;;;;5080805;28;20251;-72
2021/01/17 08:30:11;;;;;;;43.33;26.35;;;;;;;;;;5086465;28;20179;-74
2021/01/17 08:32:37;;;;;;;41.05;24.75;;;;;;;;;;5093965;28;20195;-70
2021/01/17 08:35:22;;;;;;;35.70;21.48;;;;;;;;;;5095878;28;20172;-76
2021/01/17 08:37:52;;;;;;;34.30;20.63;;;;;;;;;;5095379;28;20199;-72
2021/01/17 08:40:18;;;;;;;34.50;21.40;;;;;;;;;;5090945;28;20182;-71
2021/01/17 08:42:54;;;;;;;34.20;21.10;;;;;;;;;;5091939;28;20200;-73
2021/01/17 08:45:23;;;;;;;30.08;20.00;;;;;;;;;;5092550;28;20373;-74
2021/01/17 08:47:50;;;;;;;33.42;20.15;;;;;;;;;;5080807;28;20646;-73
2021/01/17 08:50:28;;;;;;;33.47;20.30;;;;;;;;;;5080352;28;20188;-74
2021/01/17 08:53:06;;;;;;;33.35;20.33;;;;;;;;;;5074617;28;20353;-72
2021/01/17 08:55:39;;;;;;;28.75;19.38;;;;;;;;;;5074521;28;20521;-72
2021/01/17 08:58:05;;;;;;;34.30;20.20;;;;;;;;;;5074743;28;20184;-73
2021/01/17 09:01:01;;;;;;;32.03;20.05;;;;;;;;;;5088595;28;20188;-74
2021/01/17 09:03:29;;;;;;;34.13;20.30;;;;;;;;;;5091200;28;20194;-72
2021/01/17 09:06:03;;;;;;;27.65;18.85;;;;;;;;;;5074374;28;20215;-75
2021/01/17 09:08:30;;;;;;;33.08;20.33;;;;;;;;;;5077877;28;20509;-75
2021/01/17 09:10:56;;;;;;;32.35;20.15;;;;;;;;;;5093555;28;20180;-74
2021/01/17 09:13:23;;;;;;;32.65;21.05;;;;;;;;;;5085178;28;20180;-72
2021/01/17 09:15:59;;;;;;;29.52;21.17;;;;;;;;;;5094277;28;20183;-74
2021/01/17 09:18:26;;;;;;;31.05;19.67;;;;;;;;;;5094208;28;20582;-74
2021/01/17 09:20:53;;;;;;;28.52;18.42;;;;;;;;;;5093499;28;20266;-76
2021/01/17 09:23:20;;;;;;;29.65;19.60;;;;;;;;;;5093575;28;20579;-75
2021/01/17 09:25:47;;;;;;;28.80;18.40;;;;;;;;;;5092501;28;20191;-72
2021/01/17 09:28:14;;;;;;;30.88;20.08;;;;;;;;;;5088529;28;20250;-73
2021/01/17 09:30:47;;;;;;;30.55;19.55;;;;;;;;;;5080925;28;20629;-71
2021/01/17 09:33:14;;;;;;;28.13;19.50;;;;;;;;;;5075754;28;20188;-73
2021/01/17 09:35:40;;;;;;;26.20;18.02;;;;;;;;;;5086194;28;20262;-75
2021/01/17 09:38:07;;;;;;;26.48;17.42;;;;;;;;;;5094001;28;20214;-75
2021/01/17 09:40:43;;;;;;;28.42;17.75;;;;;;;;;;5093129;28;20244;-76
2021/01/17 09:43:09;;;;;;;29.50;19.45;;;;;;;;;;5093620;28;20199;-72
2021/01/17 09:45:35;;;;;;;29.48;21.05;;;;;;;;;;5092948;28;20282;-73
2021/01/17 09:48:01;;;;;;;29.58;18.88;;;;;;;;;;5093489;28;20563;-75
2021/01/17 09:50:37;;;;;;;30.00;19.45;;;;;;;;;;5091916;28;20220;-74
2021/01/17 09:53:07;;;;;;;27.15;18.27;;;;;;;;;;5083512;28;20594;-71
2021/01/17 09:55:33;;;;;;;29.75;19.50;;;;;;;;;;5093188;28;20179;-75
2021/01/17 09:58:00;;;;;;;25.50;17.92;;;;;;;;;;5082649;28;20191;-73
2021/01/17 10:00:26;;;;;;;29.40;19.45;;;;;;;;;;5073332;28;20195;-74
2021/01/17 10:02:53;;;;;;;29.10;18.80;;;;;;;;;;5073331;28;20196;-72
2021/01/17 10:05:26;;;;;;;27.95;19.83;;;;;;;;;;5072701;28;20180;-71
2021/01/17 10:07:58;;;;;;;26.90;18.92;;;;;;;;;;5073089;28;20603;-73
2021/01/17 10:10:24;;;;;;;28.27;19.02;;;;;;;;;;5091831;28;20172;-74
2021/01/17 10:12:50;;;;;;;30.98;19.25;;;;;;;;;;5072967;28;20265;-75
2021/01/17 10:15:17;;;;;;;29.00;18.85;;;;;;;;;;5092796;28;20172;-75
2021/01/17 10:17:47;;;;;;;25.58;18.05;;;;;;;;;;5093256;28;20273;-75
2021/01/17 10:20:22;;;;;;;26.35;17.33;;;;;;;;;;5093429;28;20174;-74
2021/01/17 10:22:48;;;;;;;22.20;16.88;;;;;;;;;;5079656;28;20221;-74
2021/01/17 10:25:17;;;;;;;27.75;18.70;;;;;;;;;;5093630;28;20172;-72
2021/01/17 10:27:45;;;;;;;27.60;18.50;;;;;;;;;;5095991;28;20178;-73
2021/01/17 10:30:34;;;;;;;27.05;18.13;;;;;;;;;;5086561;28;20176;-73
2021/01/17 10:33:04;;;;;;;26.38;18.10;;;;;;;;;;5074446;28;20196;-74
2021/01/17 10:35:31;;;;;;;24.83;17.67;;;;;;;;;;5073404;28;20234;-74
2021/01/17 10:37:57;;;;;;;22.88;16.20;;;;;;;;;;5074719;28;20176;-74
2021/01/17 10:40:27;;;;;;;25.83;17.15;;;;;;;;;;5073394;28;20196;-74
2021/01/17 10:42:54;;;;;;;30.40;18.13;;;;;;;;;;5072240;28;20550;-75
2021/01/17 10:45:21;;;;;;;25.13;17.40;;;;;;;;;;5078151;28;20718;-75
2021/01/17 10:48:00;;;;;;;27.88;18.23;;;;;;;;;;5093177;28;20222;-71
2021/01/17 10:50:27;;;;;;;34.65;22.75;;;;;;;;;;5093145;28;20171;-74
2021/01/17 10:52:59;;;;;;;27.08;17.50;;;;;;;;;;5092839;28;20202;-72
2021/01/17 10:55:28;;;;;;;27.65;16.55;;;;;;;;;;5092637;28;20203;-74
2021/01/17 10:57:55;;;;;;;32.58;20.50;;;;;;;;;;5092750;28;20521;-76
2021/01/17 11:00:22;;;;;;;24.95;18.45;;;;;;;;;;5093093;28;20179;-75
2021/01/17 11:02:59;;;;;;;31.05;19.80;;;;;;;;;;5081420;28;20257;-74
2021/01/17 11:05:26;;;;;;;31.92;20.63;;;;;;;;;;5091512;28;20331;-73
2021/01/17 11:07:52;;;;;;;27.38;17.05;;;;;;;;;;5079819;28;20641;-74
2021/01/17 11:10:18;;;;;;;24.75;17.10;;;;;;;;;;5095642;28;20184;-73
2021/01/17 11:12:44;;;;;;;36.55;22.95;;;;;;;;;;5072532;28;20208;-76
2021/01/17 11:15:14;;;;;;;31.10;20.88;;;;;;;;;;5091398;28;20171;-75
2021/01/17 11:17:41;;;;;;;32.38;21.65;;;;;;;;;;5092772;28;20659;-74
2021/01/17 11:20:08;;;;;;;24.80;18.38;;;;;;;;;;5073049;28;20301;-74
2021/01/17 11:22:34;;;;;;;22.20;15.75;;;;;;;;;;5087119;28;20228;-73
2021/01/17 11:25:00;;;;;;;21.90;16.85;;;;;;;;;;5092564;28;20258;-75
2021/01/17 11:27:36;;;;;;;21.70;16.77;;;;;;;;;;5092692;28;20196;-74
2021/01/17 11:30:03;;;;;;;24.60;17.35;;;;;;;;;;5084855;28;20175;-73
2021/01/17 11:32:30;;;;;;;20.17;14.93;;;;;;;;;;5073397;28;20660;-73
2021/01/17 11:34:56;;;;;;;21.35;16.60;;;;;;;;;;5092239;28;20176;-71
2021/01/17 11:37:31;;;;;;;21.50;16.25;;;;;;;;;;5092585;28;20687;-72
2021/01/17 11:40:04;;;;;;;22.33;16.33;;;;;;;;;;5092536;28;20167;-74
2021/01/17 11:42:31;;;;;;;23.45;17.63;;;;;;;;;;5075135;28;20204;-73
2021/01/17 11:44:58;;;;;;;24.30;18.17;;;;;;;;;;5072019;28;20196;-74
2021/01/17 11:47:25;;;;;;;22.17;17.42;;;;;;;;;;5072302;28;20204;-73
2021/01/17 11:49:51;;;;;;;24.73;16.80;;;;;;;;;;5072353;28;20649;-74
2021/01/17 11:52:17;;;;;;;25.25;18.40;;;;;;;;;;5072147;28;20207;-74
2021/01/17 11:54:43;;;;;;;23.30;16.27;;;;;;;;;;5081753;28;20187;-75
2021/01/17 11:57:13;;;;;;;22.08;16.40;;;;;;;;;;5075725;28;20180;-74
2021/01/17 11:59:39;;;;;;;25.42;17.20;;;;;;;;;;5075856;28;20263;-72
2021/01/17 12:02:21;;;;;;;22.35;18.00;;;;;;;;;;5074324;28;20204;-76
2021/01/17 12:04:56;;;;;;;24.92;18.40;;;;;;;;;;5078239;28;20187;-75
2021/01/17 12:07:22;;;;;;;23.23;17.70;;;;;;;;;;5083313;28;20253;-75
2021/01/17 12:09:48;;;;;;;23.70;18.55;;;;;;;;;;5106027;28;20171;-72
2021/01/17 12:12:15;;;;;;;21.45;17.85;;;;;;;;;;5075510;28;20196;-72
2021/01/17 12:14:41;;;;;;;31.27;21.40;;;;;;;;;;5076441;28;20529;-75
2021/01/17 12:17:08;;;;;;;22.75;19.02;;;;;;;;;;5075481;28;20257;-72
2021/01/17 12:19:37;;;;;;;24.80;19.65;;;;;;;;;;5075308;28;20215;-75
2021/01/17 12:22:07;;;;;;;21.77;19.08;;;;;;;;;;5074014;28;20303;-74
2021/01/17 12:24:38;;;;;;;29.65;19.02;;;;;;;;;;5090823;28;20190;-74
2021/01/17 12:27:04;;;;;;;23.35;17.05;;;;;;;;;;5095488;28;20225;-74
2021/01/17 12:29:31;;;;;;;25.85;18.67;;;;;;;;;;5095169;28;20179;-74
2021/01/17 12:31:57;;;;;;;23.98;18.95;;;;;;;;;;5095388;28;20191;-75
2021/01/17 12:34:23;;;;;;;25.25;17.55;;;;;;;;;;5094782;28;20601;-76
2021/01/17 12:36:49;;;;;;;26.33;17.02;;;;;;;;;;5095081;28;20175;-76
2021/01/17 12:39:17;;;;;;;23.67;19.10;;;;;;;;;;5095376;28;20262;-75
2021/01/17 12:41:45;;;;;;;32.70;18.50;;;;;;;;;;5096354;28;20229;-72
2021/01/17 12:44:12;;;;;;;21.02;16.80;;;;;;;;;;5095777;28;20235;-72
2021/01/17 12:46:38;;;;;;;20.55;17.02;;;;;;;;;;5095265;28;20195;-75
2021/01/17 12:49:04;;;;;;;22.05;18.05;;;;;;;;;;5090452;28;20191;-71
2021/01/17 12:51:31;;;;;;;23.38;18.02;;;;;;;;;;5074823;28;20200;-74
2021/01/17 12:53:57;;;;;;;25.83;20.23;;;;;;;;;;5074325;28;20180;-73
2021/01/17 12:56:23;;;;;;;27.30;20.75;;;;;;;;;;5074968;28;20172;-73
2021/01/17 12:58:49;;;;;;;21.55;17.13;;;;;;;;;;5074514;28;20194;-72
2021/01/17 13:01:15;;;;;;;27.08;20.35;;;;;;;;;;5074565;28;20196;-72
2021/01/17 13:03:41;;;;;;;25.45;19.67;;;;;;;;;;5081147;28;20182;-71
2021/01/17 13:06:08;;;;;;;25.63;18.65;;;;;;;;;;5094081;28;20693;-74
2021/01/17 13:08:34;;;;;;;25.65;18.50;;;;;;;;;;5097173;28;20575;-73
2021/01/17 13:11:00;;;;;;;25.27;18.05;;;;;;;;;;5091937;28;20218;-73
2021/01/17 13:13:26;;;;;;;24.45;18.83;;;;;;;;;;5074250;28;20168;-74
2021/01/17 13:15:57;;;;;;;28.92;20.40;;;;;;;;;;5074027;28;20198;-74
2021/01/17 13:18:24;;;;;;;30.30;21.63;;;;;;;;;;5074453;28;20263;-72
2021/01/17 13:20:50;;;;;;;30.58;21.70;;;;;;;;;;5074458;28;20180;-73
2021/01/17 13:23:16;;;;;;;24.88;17.45;;;;;;;;;;5075484;28;20274;-73
2021/01/17 13:25:43;;;;;;;27.00;18.10;;;;;;;;;;5093520;28;20206;-75
2021/01/17 13:28:09;;;;;;;25.10;18.52;;;;;;;;;;5094312;28;20172;-75
2021/01/17 13:30:36;;;;;;;27.80;19.05;;;;;;;;;;5081696;28;20176;-76
2021/01/17 13:33:05;;;;;;;25.42;17.60;;;;;;;;;;5081048;28;20196;-73
2021/01/17 13:35:31;;;;;;;25.50;18.02;;;;;;;;;;5075066;28;20207;-72
2021/01/17 13:37:57;;;;;;;27.30;19.23;;;;;;;;;;5076891;28;20184;-72
2021/01/17 13:40:23;;;;;;;30.10;20.85;;;;;;;;;;5074509;28;20184;-76
2021/01/17 13:42:51;;;;;;;28.00;19.13;;;;;;;;;;5072604;28;20295;-73
2021/01/17 13:45:18;;;;;;;31.02;21.73;;;;;;;;;;5077247;28;20537;-74
2021/01/17 13:47:44;;;;;;;27.60;19.13;;;;;;;;;;5073886;28;20175;-73
2021/01/17 13:50:10;;;;;;;25.48;18.40;;;;;;;;;;5073652;28;20251;-73
2021/01/17 13:52:41;;;;;;;26.88;20.00;;;;;;;;;;5073491;28;20260;-73
2021/01/17 13:55:07;;;;;;;35.35;20.30;;;;;;;;;;5073436;28;20195;-74
2021/01/17 13:57:36;;;;;;;28.90;19.63;;;;;;;;;;5073690;28;20183;-74
2021/01/17 14:00:03;;;;;;;34.10;19.95;;;;;;;;;;5073636;28;20176;-73
2021/01/17 14:02:29;;;;;;;31.30;20.75;;;;;;;;;;5073582;28;20200;-76
2021/01/17 14:04:55;;;;;;;29.88;19.42;;;;;;;;;;5085523;28;20190;-74
2021/01/17 14:07:21;;;;;;;29.15;19.30;;;;;;;;;;5073210;28;20215;-75
2021/01/17 14:09:47;;;;;;;26.77;19.50;;;;;;;;;;5096175;28;20642;-71
2021/01/17 14:12:13;;;;;;;28.70;19.48;;;;;;;;;;5073275;28;20265;-73
2021/01/17 14:14:39;;;;;;;40.78;23.77;;;;;;;;;;5072809;28;20630;-76
2021/01/17 14:17:06;;;;;;;33.80;23.00;;;;;;;;;;5072641;28;20259;-74
2021/01/17 14:19:33;;;;;;;27.10;19.23;;;;;;;;;;5073102;28;20594;-71
2021/01/17 14:21:59;;;;;;;33.33;23.17;;;;;;;;;;5073656;28;20198;-73
2021/01/17 14:24:25;;;;;;;26.63;18.70;;;;;;;;;;5087510;28;20187;-75